ADDS METAR Data INFO
IDs: Format: Raw Decoded Include TAF

Data at: 1914 UTC 19 Jul 2018

KRMG 191853Z AUTO 05005KT 10SM SCT055 33/22 A2993 RMK AO2 SLP123 T03280222
KRMG 191753Z AUTO 09005KT 10SM SCT042 BKN060 32/23 A2995 RMK AO2 SLP130 T03170228 10328 20217 58013
KRMG 191653Z AUTO VRB05KT 10SM CLR 32/24 A2997 RMK AO2 SLP137 T03170239
KRMG 191553Z AUTO 36004KT 10SM CLR 29/22 A2999 RMK AO2 SLP145 T02890222
KRMG 191453Z AUTO 07006KT 10SM CLR 28/21 A2999 RMK AO2 SLP144 T02830211 50001
KRMG 191353Z AUTO 04005KT 10SM CLR 26/21 A3000 RMK AO2 SLP148 T02610206
KRMG 191253Z AUTO 02004KT 10SM CLR 23/20 A3000 RMK AO2 SLP147 T02330200
KRMG 191205Z AUTO 01005KT 10SM FEW002 22/20 A2999 RMK AO2 T02220200 $
KRMG 191153Z AUTO 01004KT 10SM CLR 22/19 A2998 RMK AO2 SLP143 T02170194 10222 20194 53015 $
KRMG 191053Z AUTO 03004KT 10SM FEW002 20/19 A2996 RMK AO2 SLP137 T02000194
KRMG 191037Z AUTO 00000KT 10SM FEW003 20/19 A2996 RMK AO2 T02000194
KRMG 190953Z AUTO 00000KT 10SM CLR 21/19 A2995 RMK AO2 SLP130 T02060194
KRMG 190853Z AUTO 00000KT 10SM CLR 21/20 A2994 RMK AO2 SLP127 T02060200 55003
KRMG 190753Z AUTO 01004KT 10SM CLR 21/20 A2993 RMK AO2 SLP124 T02110200
KRMG 190653Z AUTO 04003KT 10SM CLR 21/21 A2994 RMK AO2 SLP127 T02110206
KRMG 190553Z AUTO 00000KT 10SM CLR 22/21 A2995 RMK AO2 SLP130 T02220211 10306 20222 58003
KRMG 190453Z AUTO 10003KT 10SM CLR 23/22 A2995 RMK AO2 SLP131 T02280217 403500222
KRMG 190353Z AUTO 04003KT 10SM CLR 24/22 A2996 RMK AO2 SLP134 T02390217
KRMG 190253Z AUTO 00000KT 10SM CLR 25/22 A2996 RMK AO2 SLP133 T02500217 53015
KRMG 190153Z AUTO 01003KT 10SM CLR 26/22 A2994 RMK AO2 SLP127 T02610217
KRMG 190053Z AUTO 33004KT 10SM CLR 28/21 A2993 RMK AO2 SLP123 T02830206
KRMG 182353Z AUTO 36005KT 10SM CLR 31/20 A2991 RMK AO2 SLP119 T03060200 10350 20306 56003
KRMG 182253Z AUTO 02012KT 10SM CLR 32/20 A2992 RMK AO2 SLP119 T03220200
KRMG 182231Z AUTO 01009KT 10SM FEW002 33/19 A2992 RMK AO2 T03330189
KRMG 182153Z AUTO 02010KT 10SM CLR 34/19 A2991 RMK AO2 SLP118 T03390189
KRMG 182053Z AUTO 02007KT 10SM CLR 34/19 A2992 RMK AO2 SLP122 T03440189 58015
KRMG 181953Z AUTO 33008KT 10SM CLR 34/20 A2994 RMK AO2 SLP128 T03390200
KRMG 181853Z AUTO 35008KT 10SM FEW044 34/21 A2996 RMK AO2 SLP133 T03390211
KRMG 181753Z AUTO 03008KT 10SM CLR 33/22 A2997 RMK AO2 SLP137 T03330222 10333 20239 58011
KRMG 181653Z AUTO 35005KT 10SM CLR 32/22 A2999 RMK AO2 SLP143 T03170222
KRMG 181553Z AUTO 04007KT 10SM CLR 31/24 A3001 RMK AO2 SLP149 T03110239
KRMG 181453Z AUTO 34004KT 10SM CLR 29/24 A3000 RMK AO2 SLP148 T02940239 50003
KRMG 181353Z AUTO 35004KT 10SM CLR 27/24 A3001 RMK AO2 SLP150 T02720239 $
KRMG 181301Z AUTO 32007KT 10SM FEW002 25/23 A3001 RMK AO2 T02500233 $
KRMG 181253Z AUTO 32004KT 10SM CLR 25/23 A3001 RMK AO2 SLP151 T02500233
KRMG 181153Z AUTO 00000KT 10SM CLR 24/23 A2999 RMK AO2 SLP146 70009 T02390228 10244 20222 53015
KRMG 181053Z AUTO 30003KT 10SM CLR 23/23 A2998 RMK AO2 SLP142 T02280228
KRMG 180953Z AUTO 32004KT 10SM CLR 23/23 A2996 RMK AO2 SLP134 T02280228
KRMG 180853Z AUTO 00000KT 10SM CLR 23/23 A2995 RMK AO2 SLP132 T02280228 55010
KRMG 180753Z AUTO 23003KT 7SM FEW002 23/23 A2995 RMK AO2 SLP129 T02280228
KRMG 180736Z AUTO 00000KT 9SM SCT002 23/23 A2994 RMK AO2 T02330233